AIRPORT ID: 4P3

DATE: 2024-06-16 ZULU TIME: 14.15 LOCAL TIME: 9.15


METAR K4P3 161415Z AUTO 19014G27KT 23/19 A2965

ALTIMETER: A2965 Q1004

DENSITY ALT: 3200 Ft

WIND DIRECT: 200

WIND SPEED: 14 Gust

WIND CONDITIONS:

VISIBILTY: Not Available

TEMPERATURE: 74 F 23 C

DEW POINT: 67 F 19 C

HUMID: 78%

LCL: 1,000-3,000 feet

RADIO CHECK: 1

ADVISARIES: 1

GREETINGS: 0

CONVERSATIONS: 0